createdAt,value
2019-01-04T00:00:37.894Z,4.66
2019-01-04T00:03:07.326Z,4.68
2019-01-04T00:05:36.993Z,4.65
2019-01-04T00:08:09.567Z,4.61
2019-01-04T00:10:38.894Z,4.62
2019-01-04T00:13:08.609Z,4.53
2019-01-04T00:15:37.907Z,4.50
2019-01-04T00:18:07.365Z,4.47
2019-01-04T00:20:37.211Z,4.42
2019-01-04T00:23:06.641Z,4.42
2019-01-04T00:25:36.289Z,4.44
2019-01-04T00:28:07.983Z,4.41
2019-01-04T00:30:37.317Z,4.39
2019-01-04T00:33:07.035Z,4.36
2019-01-04T00:35:36.325Z,4.36
2019-01-04T00:38:08.450Z,4.40
2019-01-04T00:40:37.846Z,4.37
2019-01-04T00:43:07.188Z,4.38
2019-01-04T00:45:36.763Z,4.22
2019-01-04T00:48:09.181Z,4.22
2019-01-04T00:50:39.389Z,4.28
2019-01-04T00:53:08.982Z,4.25
2019-01-04T00:56:06.566Z,4.27
2019-01-04T00:59:02.710Z,4.26
2019-01-04T01:01:56.746Z,4.33
2019-01-04T01:05:18.385Z,4.25
2019-01-04T01:08:24.841Z,4.25
2019-01-04T01:11:30.083Z,4.28
2019-01-04T01:14:53.370Z,4.26
2019-01-04T01:17:59.398Z,4.26
2019-01-04T01:21:07.586Z,4.31
2019-01-04T01:24:19.934Z,4.26
2019-01-04T01:27:24.419Z,4.22
2019-01-04T01:30:33.158Z,4.27
2019-01-04T01:33:08.229Z,4.16
2019-01-04T01:36:15.846Z,4.16
2019-01-04T01:39:38.120Z,4.12
2019-01-04T01:42:42.444Z,4.08
2019-01-04T01:46:13.863Z,4.08
2019-01-04T01:49:21.078Z,4.08
2019-01-04T01:52:09.524Z,4.05
2019-01-04T01:54:38.842Z,4.05
2019-01-04T01:57:08.140Z,4.07
2019-01-04T01:59:37.568Z,4.02
2019-01-04T02:02:07.353Z,4.08
2019-01-04T02:04:36.633Z,4.04
2019-01-04T02:07:05.912Z,4.07
2019-01-04T02:09:35.181Z,4.07
2019-01-04T02:12:07.458Z,4.04
2019-01-04T02:14:37.064Z,4.04
2019-01-04T02:17:06.360Z,4.02
2019-01-04T02:19:35.909Z,4.02
2019-01-04T02:22:05.992Z,4.00
2019-01-04T02:24:35.298Z,4.00
2019-01-04T02:27:04.899Z,3.98
2019-01-04T02:29:34.256Z,3.98
2019-01-04T02:32:06.600Z,4.01
2019-01-04T02:34:36.317Z,3.98
2019-01-04T02:37:06.337Z,3.98
2019-01-04T02:39:36.249Z,3.96
2019-01-04T02:42:06.334Z,3.94
2019-01-04T02:44:35.643Z,3.94
2019-01-04T02:47:05.503Z,3.90
2019-01-04T02:49:34.801Z,3.83
2019-01-04T02:52:05.107Z,3.74
2019-01-04T02:54:35.284Z,3.74
2019-01-04T02:57:04.596Z,3.72
2019-01-04T02:59:33.983Z,3.70
2019-01-04T03:02:06.313Z,3.70
2019-01-04T03:04:35.593Z,3.74
2019-01-04T03:07:04.914Z,3.71
2019-01-04T03:09:34.172Z,3.61
2019-01-04T03:12:05.507Z,3.61
2019-01-04T03:14:34.820Z,3.63
2019-01-04T03:17:04.412Z,3.64
2019-01-04T03:19:33.696Z,3.63
2019-01-04T03:22:03.775Z,3.51
2019-01-04T03:24:33.134Z,3.52
2019-01-04T03:27:02.818Z,3.49
2019-01-04T03:29:32.295Z,3.40
2019-01-04T03:32:03.737Z,3.47
2019-01-04T03:34:32.845Z,3.40
2019-01-04T03:37:02.218Z,3.31
2019-01-04T03:39:31.503Z,3.31
2019-01-04T03:42:02.751Z,3.30
2019-01-04T03:44:32.155Z,3.25
2019-01-04T03:47:01.439Z,3.25
2019-01-04T03:49:30.986Z,3.17
2019-01-04T03:52:00.449Z,3.27
2019-01-04T03:54:29.758Z,3.29
2019-01-04T03:57:00.875Z,3.30
2019-01-04T03:59:30.275Z,3.25
2019-01-04T04:01:59.758Z,3.14
2019-01-04T04:04:29.081Z,3.11
2019-01-04T04:06:58.833Z,3.02
2019-01-04T04:09:28.124Z,2.96
2019-01-04T04:11:57.455Z,3.00
2019-01-04T04:14:26.854Z,2.99
2019-01-04T04:16:56.223Z,2.99
2019-01-04T04:19:25.505Z,3.02
2019-01-04T04:21:55.347Z,2.88
2019-01-04T04:24:24.706Z,2.78
2019-01-04T04:26:54.487Z,2.78
2019-01-04T04:29:24.466Z,2.61
2019-01-04T04:31:53.818Z,2.69
2019-01-04T04:34:23.156Z,2.88
2019-01-04T04:36:52.624Z,2.88
2019-01-04T04:39:22.297Z,2.95
2019-01-04T04:41:51.676Z,2.95
2019-01-04T04:44:21.044Z,3.01
2019-01-04T04:46:50.623Z,3.00
2019-01-04T04:49:20.079Z,3.09
2019-01-04T04:51:49.409Z,3.01
2019-01-04T04:54:19.021Z,3.04
2019-01-04T04:56:48.309Z,3.04
2019-01-04T04:59:18.575Z,3.17
2019-01-04T05:01:48.149Z,3.21
2019-01-04T05:04:17.468Z,3.30
2019-01-04T05:06:47.000Z,3.41
2019-01-04T05:09:16.596Z,3.41
2019-01-04T05:11:45.899Z,3.48
2019-01-04T05:14:17.621Z,3.65
2019-01-04T05:16:47.154Z,3.72
2019-01-04T05:19:16.834Z,3.72
2019-01-04T05:21:47.203Z,3.74
2019-01-04T05:24:16.663Z,3.68
2019-01-04T05:26:46.965Z,3.68
2019-01-04T05:29:16.674Z,3.64
2019-01-04T05:31:46.389Z,3.66
2019-01-04T05:34:16.036Z,3.42
2019-01-04T05:36:46.230Z,3.42
2019-01-04T05:39:15.518Z,3.46
2019-01-04T05:41:44.923Z,3.45
2019-01-04T05:44:14.791Z,3.45
2019-01-04T05:46:44.151Z,3.47
2019-01-04T05:49:13.652Z,3.47
2019-01-04T05:51:43.478Z,3.47
2019-01-04T05:54:12.832Z,3.40
2019-01-04T05:56:42.128Z,3.35
2019-01-04T05:59:11.497Z,3.35
2019-01-04T06:01:41.153Z,3.42
2019-01-04T06:04:10.575Z,3.48
2019-01-04T06:06:39.904Z,3.48
2019-01-04T06:09:09.700Z,3.45
2019-01-04T06:11:39.044Z,3.50
2019-01-04T06:14:08.795Z,3.49
2019-01-04T06:16:38.213Z,3.63
2019-01-04T06:19:07.573Z,3.57
2019-01-04T06:21:36.976Z,3.57
2019-01-04T06:24:06.512Z,3.60
2019-01-04T06:26:36.151Z,3.67
2019-01-04T06:29:05.938Z,3.63
2019-01-04T06:31:35.284Z,3.63
2019-01-04T06:34:07.370Z,3.64
2019-01-04T06:36:36.722Z,3.56
2019-01-04T06:39:08.271Z,3.62
2019-01-04T06:41:37.925Z,3.65
2019-01-04T06:44:07.356Z,3.66
2019-01-04T06:46:57.232Z,3.70
2019-01-04T06:49:26.949Z,3.76
2019-01-04T06:51:56.301Z,3.77
2019-01-04T06:55:01.590Z,3.72
2019-01-04T06:57:31.025Z,3.72
2019-01-04T07:00:00.390Z,3.79
2019-01-04T07:02:30.279Z,3.79
2019-01-04T07:04:59.614Z,3.88
2019-01-04T07:07:28.991Z,3.92
2019-01-04T07:09:58.624Z,3.92
2019-01-04T07:12:27.978Z,3.95
2019-01-04T07:14:57.279Z,3.98
2019-01-04T07:17:26.912Z,3.90
2019-01-04T07:19:56.330Z,3.90
2019-01-04T07:22:25.658Z,4.01
2019-01-04T07:24:55.337Z,4.02
2019-01-04T07:27:24.617Z,4.09
2019-01-04T07:29:53.979Z,4.08
2019-01-04T07:32:23.619Z,4.09
2019-01-04T07:34:53.194Z,4.10
2019-01-04T07:37:22.589Z,4.10
2019-01-04T07:39:52.370Z,4.11
2019-01-04T07:42:21.639Z,4.16
2019-01-04T07:44:50.971Z,4.18
2019-01-04T07:47:21.691Z,4.23
2019-01-04T07:49:51.043Z,4.25
2019-01-04T07:52:20.362Z,4.25
2019-01-04T07:54:50.008Z,4.29
2019-01-04T07:57:19.330Z,4.29
2019-01-04T07:59:48.639Z,4.29
2019-01-04T08:02:40.734Z,4.21
2019-01-04T08:05:12.473Z,4.21
2019-01-04T08:07:42.027Z,4.30
2019-01-04T08:10:11.503Z,4.35
2019-01-04T08:12:40.840Z,4.42
2019-01-04T08:15:10.619Z,4.48
2019-01-04T08:17:39.983Z,4.56
2019-01-04T08:20:09.935Z,4.59
2019-01-04T08:22:39.529Z,4.51
2019-01-04T08:25:09.662Z,4.61
2019-01-04T08:27:38.964Z,4.59
2019-01-04T08:30:13.722Z,4.65
2019-01-04T08:32:43.021Z,4.71
2019-01-04T08:35:12.324Z,4.78
2019-01-04T08:37:41.964Z,4.66
2019-01-04T08:40:12.142Z,4.73
2019-01-04T08:42:41.532Z,4.68
2019-01-04T08:45:15.290Z,4.68
2019-01-04T08:47:44.626Z,4.68
2019-01-04T08:50:15.003Z,4.73
2019-01-04T08:52:44.852Z,4.79
2019-01-04T08:55:17.820Z,4.81
2019-01-04T08:57:47.134Z,4.76
2019-01-04T09:00:17.148Z,4.72
2019-01-04T09:02:46.470Z,4.57
2019-01-04T09:05:15.888Z,4.60
2019-01-04T09:07:46.491Z,4.59
2019-01-04T09:10:15.804Z,4.52
2019-01-04T09:12:45.140Z,4.54
2019-01-04T09:15:14.796Z,4.60
2019-01-04T09:17:44.080Z,4.64
2019-01-04T09:20:13.504Z,4.65
2019-01-04T09:22:43.724Z,4.73
2019-01-04T09:25:13.035Z,4.73
2019-01-04T09:27:42.334Z,4.66
2019-01-04T09:30:14.154Z,4.59
2019-01-04T09:32:43.499Z,4.64
2019-01-04T09:35:12.818Z,4.60
2019-01-04T09:37:42.498Z,4.69
2019-01-04T09:40:12.612Z,4.62
2019-01-04T09:42:47.866Z,4.58
2019-01-04T09:45:17.468Z,4.56
2019-01-04T09:47:46.795Z,4.57
2019-01-04T09:50:16.373Z,4.54
2019-01-04T09:52:45.706Z,4.57
2019-01-04T09:55:15.205Z,4.67
2019-01-04T09:57:44.828Z,4.80
2019-01-04T10:00:14.602Z,4.88
2019-01-04T10:02:43.912Z,4.88
2019-01-04T10:05:13.613Z,4.99
2019-01-04T10:07:42.924Z,5.06
2019-01-04T10:10:13.314Z,5.38
2019-01-04T10:12:43.965Z,5.57
2019-01-04T10:15:15.782Z,5.85
2019-01-04T10:18:09.647Z,6.17
2019-01-04T10:20:39.268Z,6.30
2019-01-04T10:23:08.950Z,6.66
2019-01-04T10:25:38.265Z,6.74
2019-01-04T10:28:07.601Z,7.02
2019-01-04T10:30:37.283Z,7.28
2019-01-04T10:33:13.598Z,7.59
2019-01-04T10:35:45.482Z,7.45
2019-01-04T10:38:15.087Z,7.90
2019-01-04T10:40:44.434Z,8.32
2019-01-04T10:43:14.066Z,8.52
2019-01-04T10:45:45.185Z,8.47
2019-01-04T10:48:14.497Z,8.44
2019-01-04T10:50:44.610Z,8.50
2019-01-04T10:53:13.972Z,8.32
2019-01-04T10:55:43.240Z,8.48
2019-01-04T10:58:12.870Z,8.36
2019-01-04T11:00:42.213Z,8.41
2019-01-04T11:03:11.520Z,8.56
2019-01-04T11:05:41.228Z,8.52
2019-01-04T11:08:10.567Z,8.09
2019-01-04T11:10:39.864Z,8.21
2019-01-04T11:13:10.409Z,8.26
2019-01-04T11:15:39.942Z,8.55
2019-01-04T11:18:09.969Z,8.66
2019-01-04T11:20:44.742Z,9.03
2019-01-04T11:24:06.208Z,9.30
2019-01-04T11:27:09.265Z,9.61
2019-01-04T11:30:14.382Z,9.81
2019-01-04T11:33:13.861Z,9.76
2019-01-04T11:36:30.237Z,9.80
2019-01-04T11:39:36.515Z,9.85
2019-01-04T11:42:42.733Z,10.04
2019-01-04T11:46:05.446Z,10.24
2019-01-04T11:49:08.153Z,10.13
2019-01-04T11:51:50.790Z,9.85
2019-01-04T11:54:23.852Z,9.38
2019-01-04T11:56:54.575Z,9.23
2019-01-04T11:59:23.924Z,9.12
2019-01-04T12:01:53.266Z,8.88
2019-01-04T12:04:22.918Z,8.73
2019-01-04T12:06:55.399Z,8.39
2019-01-04T12:09:25.111Z,8.40
2019-01-04T12:11:54.751Z,8.24
2019-01-04T12:14:24.215Z,8.30
2019-01-04T12:16:53.520Z,8.24
2019-01-04T12:19:23.164Z,8.17
2019-01-04T12:21:52.465Z,8.00
2019-01-04T12:24:21.759Z,8.02
2019-01-04T12:26:51.582Z,8.02
2019-01-04T12:29:20.884Z,8.10
2019-01-04T12:31:50.284Z,7.98
2019-01-04T12:34:19.887Z,7.83
2019-01-04T12:36:49.157Z,7.65
2019-01-04T12:39:18.493Z,7.65
2019-01-04T12:41:48.197Z,7.62
2019-01-04T12:44:17.483Z,7.40
2019-01-04T12:46:46.816Z,7.53
2019-01-04T12:49:16.475Z,7.61
2019-01-04T12:51:45.790Z,7.66
2019-01-04T12:54:15.138Z,7.66
2019-01-04T12:56:44.768Z,7.57
2019-01-04T12:59:14.102Z,7.52
2019-01-04T13:01:43.567Z,7.41
2019-01-04T13:04:12.918Z,7.41
2019-01-04T13:06:42.250Z,7.49
2019-01-04T13:09:11.716Z,7.34
2019-01-04T13:11:42.875Z,7.39
2019-01-04T13:14:13.645Z,7.31
2019-01-04T13:16:43.015Z,7.38
2019-01-04T13:19:12.426Z,7.21
2019-01-04T13:21:42.111Z,7.24
2019-01-04T13:24:11.441Z,7.37
2019-01-04T13:26:40.775Z,7.31
2019-01-04T13:29:11.410Z,7.24
2019-01-04T13:31:40.746Z,7.21
2019-01-04T13:34:10.125Z,7.22
2019-01-04T13:36:39.858Z,7.06
2019-01-04T13:39:12.108Z,7.15
2019-01-04T13:41:46.549Z,7.13
2019-01-04T13:44:16.354Z,7.22
2019-01-04T13:46:45.722Z,7.19
2019-01-04T13:49:15.413Z,7.15
2019-01-04T13:51:44.787Z,7.09
2019-01-04T13:54:14.114Z,7.16
2019-01-04T13:56:43.798Z,7.20
2019-01-04T13:59:13.112Z,7.18
2019-01-04T14:01:42.582Z,7.25
2019-01-04T14:04:12.111Z,7.22
2019-01-04T14:06:41.413Z,7.35
2019-01-04T14:09:10.823Z,7.31
2019-01-04T14:11:40.188Z,7.35
2019-01-04T14:14:12.800Z,7.33
2019-01-04T14:16:46.553Z,7.31
2019-01-04T14:19:17.383Z,7.21
2019-01-04T14:21:46.720Z,7.00
2019-01-04T14:24:22.125Z,6.96
2019-01-04T14:26:52.480Z,6.91
2019-01-04T14:29:21.900Z,6.79
2019-01-04T14:31:58.725Z,6.86
2019-01-04T14:34:31.871Z,6.92
2019-01-04T14:37:05.540Z,6.72
2019-01-04T14:39:36.516Z,6.80
2019-01-04T14:42:06.527Z,6.72
2019-01-04T14:44:43.441Z,6.62
2019-01-04T14:47:13.520Z,6.71
2019-01-04T14:49:43.110Z,6.69
2019-01-04T14:52:12.780Z,6.71
2019-01-04T14:54:42.412Z,6.56
2019-01-04T14:57:11.938Z,6.41
2019-01-04T14:59:41.690Z,6.60
2019-01-04T15:02:11.375Z,6.66
2019-01-04T15:04:40.759Z,6.59
2019-01-04T15:07:10.981Z,6.61
2019-01-04T15:10:27.944Z,6.63
2019-01-04T15:13:28.970Z,6.66
2019-01-04T15:15:58.774Z,6.55
2019-01-04T15:18:28.159Z,6.39
2019-01-04T15:21:01.977Z,6.33
2019-01-04T15:23:31.690Z,6.42
2019-01-04T15:26:02.225Z,6.40
2019-01-04T15:28:31.608Z,6.39
2019-01-04T15:31:01.215Z,6.39
2019-01-04T15:33:30.569Z,6.38
2019-01-04T15:36:00.028Z,6.47
2019-01-04T15:38:29.631Z,6.38
2019-01-04T15:40:58.970Z,6.44
2019-01-04T15:43:28.373Z,6.44
2019-01-04T15:45:58.025Z,6.42
2019-01-04T15:48:27.499Z,6.42
2019-01-04T15:50:56.948Z,6.45
2019-01-04T15:53:26.853Z,6.40
2019-01-04T15:55:56.229Z,6.45
2019-01-04T15:58:25.642Z,6.48
2019-01-04T16:00:55.394Z,6.45
2019-01-04T16:03:24.904Z,6.50
2019-01-04T16:05:54.648Z,6.48
2019-01-04T16:08:24.463Z,6.54
2019-01-04T16:10:54.001Z,6.48
2019-01-04T16:13:23.515Z,6.52
2019-01-04T16:15:52.957Z,6.42
2019-01-04T16:18:22.430Z,6.47
2019-01-04T16:20:52.813Z,6.52
2019-01-04T16:23:23.219Z,6.41
2019-01-04T16:25:52.765Z,6.35
2019-01-04T16:28:22.180Z,6.37
2019-01-04T16:30:51.684Z,6.25
2019-01-04T16:33:21.171Z,6.33
2019-01-04T16:35:50.580Z,6.32
2019-01-04T16:38:21.083Z,6.36
2019-01-04T16:40:51.451Z,6.41
2019-01-04T16:43:21.598Z,6.42
2019-01-04T16:45:51.093Z,6.37
2019-01-04T16:48:23.312Z,6.37
2019-01-04T16:50:52.772Z,6.32
2019-01-04T16:53:22.194Z,6.36
2019-01-04T16:55:51.700Z,6.50
2019-01-04T16:58:21.245Z,6.52
2019-01-04T17:00:51.320Z,6.52
2019-01-04T17:03:21.401Z,6.61
2019-01-04T17:05:50.978Z,6.60
2019-01-04T17:08:20.955Z,6.41
2019-01-04T17:10:50.585Z,6.52
2019-01-04T17:13:20.110Z,6.42
2019-01-04T17:15:50.680Z,6.49
2019-01-04T17:18:20.613Z,6.58
2019-01-04T17:20:50.580Z,6.52
2019-01-04T17:23:20.441Z,6.54
2019-01-04T17:25:50.915Z,6.41
2019-01-04T17:30:45.171Z,6.40
2019-01-04T17:33:14.868Z,6.41
2019-01-04T17:35:44.754Z,6.45
2019-01-04T17:38:14.651Z,6.52
2019-01-04T17:40:45.276Z,6.46
2019-01-04T17:43:17.611Z,6.50
2019-01-04T17:45:47.755Z,6.45
2019-01-04T17:48:19.202Z,6.40
2019-01-04T17:50:49.034Z,6.40
2019-01-04T17:53:19.464Z,6.39
2019-01-04T17:55:48.982Z,6.40
2019-01-04T17:58:18.886Z,6.42
2019-01-04T18:00:49.007Z,6.36
2019-01-04T18:03:18.747Z,6.43
2019-01-04T18:05:48.523Z,6.38
2019-01-04T18:08:20.995Z,6.41
2019-01-04T18:10:50.918Z,6.28
2019-01-04T18:13:20.933Z,6.32
2019-01-04T18:15:50.912Z,6.28
2019-01-04T18:18:20.695Z,6.25
2019-01-04T18:20:50.921Z,6.05
2019-01-04T18:23:20.924Z,6.10
2019-01-04T18:25:54.489Z,6.25
2019-01-04T18:28:25.517Z,6.21
2019-01-04T18:30:55.404Z,6.20
2019-01-04T18:33:25.149Z,6.22
2019-01-04T18:35:55.317Z,6.15
2019-01-04T18:38:25.097Z,6.22
2019-01-04T18:40:54.969Z,6.25
2019-01-04T18:43:25.102Z,6.28
2019-01-04T18:45:54.818Z,6.14
2019-01-04T18:48:24.631Z,6.24
2019-01-04T18:50:55.081Z,6.23
2019-01-04T18:53:26.751Z,6.14
2019-01-04T18:55:56.544Z,6.14
2019-01-04T18:58:27.339Z,6.25
2019-01-04T19:00:57.580Z,6.27
2019-01-04T19:03:27.387Z,6.27
2019-01-04T19:05:57.457Z,6.16
2019-01-04T19:08:27.225Z,6.25
2019-01-04T19:10:57.310Z,6.26
2019-01-04T19:13:27.647Z,6.30
2019-01-04T19:15:57.564Z,6.33
2019-01-04T19:18:27.446Z,6.36
2019-01-04T19:21:00.400Z,6.33
2019-01-04T19:23:30.546Z,6.34
2019-01-04T19:26:00.202Z,6.31
2019-01-04T19:28:30.351Z,6.31
2019-01-04T19:31:01.273Z,6.25
2019-01-04T19:33:33.342Z,6.20
2019-01-04T19:36:08.139Z,6.09
2019-01-04T19:38:38.081Z,6.12
2019-01-04T19:41:13.668Z,6.15
2019-01-04T19:43:45.416Z,6.15
2019-01-04T19:46:15.893Z,6.21
2019-01-04T19:48:46.003Z,6.21
2019-01-04T19:51:16.106Z,6.24
2019-01-04T19:53:46.595Z,6.24
2019-01-04T19:56:16.685Z,6.25
2019-01-04T19:58:47.416Z,6.26
2019-01-04T20:01:22.597Z,6.16
2019-01-04T20:03:53.368Z,6.24
2019-01-04T20:07:31.112Z,6.21
2019-01-04T20:11:05.673Z,6.26
2019-01-04T20:15:08.511Z,6.12
2019-01-04T20:18:06.504Z,6.10
2019-01-04T20:20:55.487Z,6.06
2019-01-04T20:23:44.654Z,6.15
2019-01-04T20:26:44.189Z,6.09
2019-01-04T20:29:49.671Z,6.10
2019-01-04T20:32:38.286Z,6.14
2019-01-04T20:35:26.998Z,6.23
2019-01-04T20:38:14.132Z,6.25
2019-01-04T20:41:08.861Z,6.21
2019-01-04T20:43:56.254Z,6.26
2019-01-04T20:46:43.337Z,6.23
2019-01-04T20:49:31.473Z,6.24
2019-01-04T20:52:19.051Z,6.21
2019-01-04T20:55:08.227Z,6.33
2019-01-04T20:57:53.961Z,6.36
2019-01-04T21:00:55.303Z,6.35
2019-01-04T21:03:42.808Z,6.36
2019-01-04T21:06:47.442Z,6.36
2019-01-04T21:09:42.054Z,6.39
2019-01-04T21:12:30.160Z,6.43
2019-01-04T21:15:24.540Z,6.47
2019-01-04T21:18:22.523Z,6.49
2019-01-04T21:21:06.216Z,6.50
2019-01-04T21:24:11.173Z,6.50
2019-01-04T21:27:08.972Z,6.41
2019-01-04T21:30:08.673Z,6.38
2019-01-04T21:33:06.489Z,6.36
2019-01-04T21:35:54.897Z,6.48
2019-01-04T21:38:41.856Z,6.45
2019-01-04T21:41:30.779Z,6.48
2019-01-04T21:44:11.565Z,6.47
2019-01-04T21:46:59.127Z,6.51
2019-01-04T21:49:53.581Z,6.59
2019-01-04T21:52:58.053Z,6.48
2019-01-04T21:56:04.613Z,6.58
2019-01-04T21:58:52.240Z,6.51
2019-01-04T22:01:39.594Z,6.32
2019-01-04T22:04:38.565Z,6.35
2019-01-04T22:07:29.883Z,6.47
2019-01-04T22:10:17.891Z,6.34
2019-01-04T22:13:15.823Z,6.35
2019-01-04T22:16:19.839Z,6.41
2019-01-04T22:19:07.012Z,6.31
2019-01-04T22:22:08.252Z,6.28
2019-01-04T22:24:59.600Z,6.25
2019-01-04T22:27:50.978Z,6.35
2019-01-04T22:30:54.467Z,6.38
2019-01-04T22:33:57.891Z,6.45
2019-01-04T22:36:45.656Z,6.39
2019-01-04T22:39:40.213Z,6.42
2019-01-04T22:42:26.956Z,6.34
2019-01-04T22:45:16.632Z,6.33
2019-01-04T22:48:03.649Z,6.37
2019-01-04T22:51:07.392Z,6.28
2019-01-04T22:53:54.287Z,6.25
2019-01-04T22:56:43.182Z,6.25
2019-01-04T22:59:43.637Z,6.22
2019-01-04T23:02:34.921Z,6.28
2019-01-04T23:05:22.691Z,6.27
2019-01-04T23:08:10.121Z,6.28
2019-01-04T23:11:13.567Z,6.31
2019-01-04T23:14:08.243Z,6.28
2019-01-04T23:16:55.247Z,6.30
2019-01-04T23:19:42.558Z,6.35
2019-01-04T23:22:45.615Z,6.41
2019-01-04T23:25:50.701Z,6.42
2019-01-04T23:28:37.695Z,6.45
2019-01-04T23:31:32.582Z,6.40
2019-01-04T23:34:32.984Z,6.37
2019-01-04T23:37:23.897Z,6.38
2019-01-04T23:40:18.311Z,6.47
2019-01-04T23:43:19.537Z,6.41
2019-01-04T23:46:23.444Z,6.41
2019-01-04T23:49:10.922Z,6.37
2019-01-04T23:52:17.313Z,6.35
2019-01-04T23:55:09.201Z,6.26
2019-01-04T23:58:15.764Z,6.32
